Overview Statistics Trail Chart Weather Telemetry Raw packets
 

This is the latest recevied weather packets stored in our database for station/object PY2WOA-13. If no packets are shown the sender has not sent any weather packets the latest 10 day(s).

<< 2 3 4 5 6 7 8 >>
Time Temp. Humidity Pressure Rain* Wind** Luminosity Snow
1788500104 18.89° C 72% 1013 hPa - - - -
1788498307 18.33° C 73% 1013.3 hPa - - - -
1788496503 19.44° C 70% 1013.1 hPa - - - -
1788494703 20° C 68% 1013.2 hPa - - - -
1788492903 20° C 66% 1013.1 hPa - - - -
1788491104 20.56° C 63% 1013.1 hPa - - - -
1788489304 21.11° C 61% 1012.8 hPa - - - -
1788487504 22.22° C 59% 1012.8 hPa - - - -
1788485704 22.78° C 56% 1013 hPa - - - -
1788483904 23.33° C 55% 1012.9 hPa - - - -
1788482104 23.33° C 54% 1012.8 hPa - - - -
1788480303 23.33° C 54% 1012.6 hPa - - - -
1788478504 23.33° C 56% 1012.5 hPa - - - -
1788476704 25° C 47% 1012 hPa - - - -
1788474904 25.56° C 44% 1011.7 hPa - - - -
1788473104 26.11° C 43% 1011.7 hPa - - - -
1788471304 26.67° C 42% 1011.5 hPa - - - -
1788469503 27.78° C 38% 1011.3 hPa - - - -
1788467703 29.44° C 32% 1011.1 hPa - - - -
1788465904 32.22° C 26% 1010.7 hPa - - - -
1788464104 33.89° C 24% 1010.4 hPa - - - -
1788462304 35.56° C 22% 1010 hPa - - - -
1788460504 36.67° C 20% 1009.9 hPa - - - -
1788458704 37.22° C 22% 1009.9 hPa - - - -
1788456904 37.22° C 21% 1010.3 hPa - - - -

* Rain since midnight (hover to see other rain measurements)
** Current wind speed in m/s (hover to see current wind gust speed)